Connor, United Kingdom
Current Conditions -  °F | °C
As of 4:50 PM on Friday 31 Oct 2014 (Local Time) from EGAA Reporting Station
Light Rain Light Rain  
Wind Chill: 14°   Ceiling: 1000
Heat Index: 14°   Visibility: 3mi
Dew Point: 14°   Wind: 5mph
Humidity: 100%   Direction: 170°S
Pressure: 29.62"   Gusts: NA
Location:  54.8°N, 6.2°W
Report Text: EGAA 311650Z 17004KT 140V210 5000 -RADZ SCT004 BKN010 14/14 Q1003 RERA
Loading
Personal Weather Stations






























Interactive Weather Map
Tropical Storm Tracking
New forecast layout! Learn more

10-Day Weather Forecast

Advertisements
Track Severe Weather on mobile